Time;durP1;ratioP1;P1;durP2;ratioP2;P2;SDS_P1;SDS_P2;PMS_P1;PMS_P2;Temp;Humidity;BMP_temperature;BMP_pressure;BME280_temperature;BME280_humidity;BME280_pressure;Samples;Min_cycle;Max_cycle;Signal;HPM_P1;HPM_P2
2020/12/20 00:02:16;;;;;;;8.55;4.25;;;8.70;96.60;;;;;;4880796;29;20056;-78
2020/12/20 00:04:43;;;;;;;6.88;4.45;;;8.70;96.60;;;;;;4868936;29;20059;-77
2020/12/20 00:07:09;;;;;;;9.05;4.22;;;8.70;96.60;;;;;;4878141;29;20705;-77
2020/12/20 00:09:36;;;;;;;8.55;5.35;;;8.80;96.60;;;;;;4859079;29;20056;-77
2020/12/20 00:12:03;;;;;;;5.95;4.15;;;8.80;96.70;;;;;;4885800;29;20047;-78
2020/12/20 00:14:30;;;;;;;6.75;3.25;;;8.80;96.70;;;;;;4889778;29;20492;-78
2020/12/20 00:17:08;;;;;;;6.38;3.25;;;8.80;96.60;;;;;;4880746;29;20048;-77
2020/12/20 00:19:36;;;;;;;7.38;3.92;;;8.80;96.60;;;;;;4871989;29;20037;-77
2020/12/20 00:22:09;;;;;;;9.50;4.07;;;8.80;96.60;;;;;;4894169;29;20036;-78
2020/12/20 00:24:36;;;;;;;7.82;4.30;;;8.80;96.60;;;;;;4880449;29;20052;-77
2020/12/20 00:27:04;;;;;;;9.18;4.07;;;8.80;96.60;;;;;;4882082;29;20044;-79
2020/12/20 00:29:32;;;;;;;8.90;4.53;;;8.80;96.60;;;;;;4867895;29;20063;-77
2020/12/20 00:32:00;;;;;;;7.15;4.60;;;8.80;96.70;;;;;;4849516;29;20499;-78
2020/12/20 00:34:27;;;;;;;10.65;5.60;;;8.90;96.90;;;;;;4894239;29;20044;-78
2020/12/20 00:36:53;;;;;;;8.80;3.90;;;8.90;96.60;;;;;;4901252;29;20055;-78
2020/12/20 00:39:21;;;;;;;8.77;4.18;;;8.90;96.60;;;;;;4885440;29;20111;-77
2020/12/20 00:41:53;;;;;;;3.78;2.67;;;8.90;96.60;;;;;;4878544;29;20020;-77
2020/12/20 00:44:20;;;;;;;7.88;3.65;;;8.90;96.60;;;;;;4875164;29;20032;-77
2020/12/20 00:46:47;;;;;;;9.65;3.00;;;8.90;96.60;;;;;;4900785;29;20475;-77
2020/12/20 00:49:14;;;;;;;6.38;3.15;;;9.00;96.60;;;;;;4893247;29;20041;-78
2020/12/20 00:51:40;;;;;;;7.88;3.45;;;9.00;96.60;;;;;;4852415;29;20045;-78
2020/12/20 00:54:06;;;;;;;8.88;3.17;;;9.00;96.60;;;;;;4886458;29;20053;-79
2020/12/20 00:56:33;;;;;;;14.30;5.13;;;8.90;96.50;;;;;;4856590;29;20051;-77
2020/12/20 00:59:00;;;;;;;9.05;3.55;;;9.00;96.60;;;;;;4846155;29;20057;-78
2020/12/20 01:01:28;;;;;;;6.70;3.42;;;9.00;96.60;;;;;;4895540;29;20055;-78
2020/12/20 01:03:54;;;;;;;6.07;3.80;;;9.00;96.60;;;;;;4895558;29;20060;-78
2020/12/20 01:06:22;;;;;;;6.85;2.67;;;9.00;96.60;;;;;;4889371;29;20458;-78
2020/12/20 01:08:56;;;;;;;6.40;3.00;;;9.00;96.50;;;;;;4848862;29;20040;-78
2020/12/20 01:11:24;;;;;;;6.75;3.03;;;9.00;96.50;;;;;;4854393;29;20056;-77
2020/12/20 01:13:51;;;;;;;5.03;2.17;;;9.00;96.50;;;;;;4849831;29;20131;-78
2020/12/20 01:16:26;;;;;;;7.75;2.45;;;9.00;96.50;;;;;;4833384;29;20492;-78
2020/12/20 01:18:53;;;;;;;6.15;2.80;;;9.00;96.50;;;;;;4867531;29;20041;-79
2020/12/20 01:21:20;;;;;;;10.77;2.58;;;9.00;96.80;;;;;;4862586;29;20037;-77
2020/12/20 01:23:47;;;;;;;8.80;3.22;;;9.00;96.50;;;;;;4894295;29;20051;-78
2020/12/20 01:26:15;;;;;;;8.05;2.65;;;9.00;96.50;;;;;;4889896;29;20032;-78
2020/12/20 01:28:42;;;;;;;7.35;2.72;;;8.90;96.50;;;;;;4887145;29;20372;-78
2020/12/20 01:31:11;;;;;;;5.68;2.80;;;8.90;96.50;;;;;;4854841;29;20037;-78
2020/12/20 01:33:51;;;;;;;6.35;2.72;;;8.90;96.50;;;;;;4885335;29;20032;-78
2020/12/20 01:36:18;;;;;;;8.18;3.20;;;8.90;96.50;;;;;;4853960;29;20044;-78
2020/12/20 01:38:52;;;;;;;7.75;2.75;;;8.90;96.60;;;;;;4894216;29;20056;-78
2020/12/20 01:41:19;;;;;;;8.98;2.80;;;8.90;96.60;;;;;;4871799;29;20048;-78
2020/12/20 01:43:49;;;;;;;7.40;2.95;;;8.90;96.60;;;;;;4868081;29;20572;-78
2020/12/20 01:46:23;;;;;;;7.75;2.80;;;8.90;96.60;;;;;;4888301;29;20395;-78
2020/12/20 01:48:51;;;;;;;8.25;3.35;;;8.90;96.60;;;;;;4888764;29;20053;-78
2020/12/20 01:51:18;;;;;;;6.85;3.47;;;8.90;96.60;;;;;;4852879;29;20041;-78
2020/12/20 01:53:52;;;;;;;7.72;2.30;;;8.90;96.60;;;;;;4880758;29;20037;-78
2020/12/20 01:56:19;;;;;;;7.93;2.58;;;8.90;96.60;;;;;;4891521;29;20056;-78
2020/12/20 01:58:49;;;;;;;4.75;2.25;;;8.80;96.60;;;;;;4856602;29;20029;-78
2020/12/20 02:01:23;;;;;;;7.78;2.78;;;8.90;96.60;;;;;;4872583;29;20036;-78
2020/12/20 02:04:08;;;;;;;7.80;2.20;;;8.80;96.60;;;;;;4875377;29;20057;-78
2020/12/20 02:06:40;;;;;;;6.00;1.98;;;8.90;96.60;;;;;;4877485;29;20045;-78
2020/12/20 02:09:07;;;;;;;7.97;2.72;;;8.90;96.60;;;;;;4879740;29;20810;-78
2020/12/20 02:11:34;;;;;;;4.63;2.15;;;8.90;96.60;;;;;;4869384;29;20032;-78
2020/12/20 02:14:07;;;;;;;6.30;2.00;;;8.80;96.50;;;;;;4867643;29;20044;-78
2020/12/20 02:16:44;;;;;;;5.82;2.08;;;8.90;96.50;;;;;;4869404;29;20072;-78
2020/12/20 02:19:11;;;;;;;7.28;2.45;;;8.80;96.50;;;;;;4865313;29;20055;-78
2020/12/20 02:21:38;;;;;;;5.25;1.90;;;8.80;96.50;;;;;;4883221;29;20487;-78
2020/12/20 02:24:11;;;;;;;5.80;2.08;;;8.80;96.60;;;;;;4845286;29;20036;-78
2020/12/20 02:26:46;;;;;;;5.30;1.80;;;8.80;96.60;;;;;;4893002;29;20044;-78
2020/12/20 02:29:14;;;;;;;6.38;2.33;;;8.80;96.60;;;;;;4878095;29;20048;-78
2020/12/20 02:31:40;;;;;;;5.00;2.03;;;8.80;96.60;;;;;;4879338;29;20049;-78
2020/12/20 02:34:10;;;;;;;9.05;2.75;;;8.80;96.60;;;;;;4879393;29;20049;-78
2020/12/20 02:36:39;;;;;;;5.05;2.35;;;8.80;96.60;;;;;;4851245;29;20044;-78
2020/12/20 02:39:09;;;;;;;6.53;2.10;;;8.70;96.60;;;;;;4856331;29;20052;-78
2020/12/20 02:41:56;;;;;;;7.28;2.28;;;8.70;96.60;;;;;;4884155;29;20531;-78
2020/12/20 02:44:24;;;;;;;4.90;2.65;;;8.70;96.60;;;;;;4858850;29;20574;-78
2020/12/20 02:46:56;;;;;;;10.13;3.03;;;8.70;96.60;;;;;;4862218;29;20043;-78
2020/12/20 02:49:26;;;;;;;6.43;2.78;;;8.70;96.70;;;;;;4878260;29;20044;-78
2020/12/20 02:51:56;;;;;;;6.25;3.33;;;8.70;96.70;;;;;;4853525;29;20052;-78
2020/12/20 02:54:22;;;;;;;6.35;2.65;;;8.60;96.70;;;;;;4887550;29;20072;-77
2020/12/20 02:56:50;;;;;;;9.05;2.75;;;8.60;96.70;;;;;;4854887;29;20416;-78
2020/12/20 02:59:30;;;;;;;8.35;3.03;;;8.60;96.70;;;;;;4869247;29;20059;-78
2020/12/20 03:01:57;;;;;;;7.65;3.60;;;8.60;96.70;;;;;;4858890;29;20047;-78
2020/12/20 03:04:23;;;;;;;6.82;3.60;;;8.60;96.70;;;;;;4856396;29;20060;-78
2020/12/20 03:06:50;;;;;;;6.82;3.17;;;8.60;96.70;;;;;;4851082;29;20736;-78
2020/12/20 03:09:17;;;;;;;6.63;2.97;;;8.60;96.70;;;;;;4838481;29;20044;-78
2020/12/20 03:11:43;;;;;;;6.35;3.08;;;8.60;96.70;;;;;;4875440;29;20047;-78
2020/12/20 03:14:10;;;;;;;8.85;4.70;;;8.60;96.70;;;;;;4863441;29;20044;-78
2020/12/20 03:16:43;;;;;;;7.45;3.00;;;8.60;96.70;;;;;;4837048;29;20719;-78
2020/12/20 03:19:10;;;;;;;5.32;2.33;;;8.60;96.80;;;;;;4851540;29;20041;-78
2020/12/20 03:21:37;;;;;;;6.35;2.20;;;8.60;97.00;;;;;;4880042;29;20040;-78
2020/12/20 03:24:33;;;;;;;3.88;1.75;;;8.60;96.70;;;;;;4829595;29;20050;-78
2020/12/20 03:27:18;;;;;;;8.35;2.47;;;8.60;96.70;;;;;;4861854;29;20044;-78
2020/12/20 03:30:04;;;;;;;5.40;2.08;;;8.60;96.70;;;;;;4854869;29;20036;-78
2020/12/20 03:32:52;;;;;;;8.20;2.40;;;8.60;96.70;;;;;;4874992;29;20048;-78
2020/12/20 03:35:39;;;;;;;6.78;3.00;;;8.60;96.70;;;;;;4900768;29;20048;-78
2020/12/20 03:38:09;;;;;;;4.68;2.13;;;8.60;96.70;;;;;;4880734;29;20035;-78
2020/12/20 03:40:39;;;;;;;11.63;4.40;;;8.60;96.70;;;;;;4849229;29;20045;-78
2020/12/20 03:43:07;;;;;;;5.75;2.70;;;8.60;96.80;;;;;;4895729;29;20053;-78
2020/12/20 03:45:41;;;;;;;6.90;2.50;;;8.60;96.80;;;;;;4876493;29;20033;-78
2020/12/20 03:48:10;;;;;;;3.80;2.20;;;8.70;96.70;;;;;;4875302;29;20043;-78
2020/12/20 03:50:37;;;;;;;5.53;2.35;;;8.60;96.70;;;;;;4865726;29;20040;-78
2020/12/20 03:53:04;;;;;;;5.35;2.15;;;8.60;96.70;;;;;;4842688;29;20515;-78
2020/12/20 03:55:44;;;;;;;7.15;2.63;;;8.60;96.70;;;;;;4861222;29;20522;-78
2020/12/20 03:58:11;;;;;;;4.93;2.28;;;8.60;96.70;;;;;;4867313;29;20045;-78
2020/12/20 04:00:39;;;;;;;5.85;2.58;;;8.60;96.70;;;;;;4847650;29;20036;-78
2020/12/20 04:03:20;;;;;;;6.90;2.97;;;8.60;96.70;;;;;;4882477;29;20057;-78
2020/12/20 04:05:47;;;;;;;6.85;1.55;;;8.70;96.70;;;;;;4870651;29;20040;-78
2020/12/20 04:08:14;;;;;;;4.25;1.52;;;8.70;96.70;;;;;;4862649;29;20047;-77
2020/12/20 04:10:54;;;;;;;9.38;2.83;;;8.70;96.70;;;;;;4890039;29;20071;-78
2020/12/20 04:13:20;;;;;;;9.05;3.00;;;8.70;96.70;;;;;;4873723;29;20053;-78
2020/12/20 04:15:47;;;;;;;6.13;2.40;;;8.70;96.70;;;;;;4872123;29;20044;-78
2020/12/20 04:18:14;;;;;;;5.78;2.33;;;8.70;96.70;;;;;;4867095;29;20056;-78
2020/12/20 04:20:41;;;;;;;7.32;2.15;;;8.70;96.70;;;;;;4891891;29;20037;-78
2020/12/20 04:23:08;;;;;;;4.88;1.88;;;8.70;96.70;;;;;;4899524;29;20042;-78
2020/12/20 04:25:39;;;;;;;5.80;1.67;;;8.70;96.70;;;;;;4864470;29;20052;-78
2020/12/20 04:28:38;;;;;;;3.72;1.77;;;8.70;96.70;;;;;;4831067;29;20058;-78
2020/12/20 04:31:19;;;;;;;6.40;1.75;;;8.70;96.60;;;;;;4857237;29;20048;-78
2020/12/20 04:33:46;;;;;;;8.65;1.85;;;8.70;96.70;;;;;;4839622;29;20037;-78
2020/12/20 04:36:19;;;;;;;3.80;1.58;;;8.70;96.70;;;;;;4852301;29;20060;-78
2020/12/20 04:38:46;;;;;;;6.65;1.83;;;8.70;96.70;;;;;;4885405;29;20044;-78
2020/12/20 04:41:14;;;;;;;4.50;1.83;;;8.70;96.70;;;;;;4852558;29;20040;-78
2020/12/20 04:43:46;;;;;;;7.82;2.53;;;8.70;96.70;;;;;;4874926;29;20040;-78
2020/12/20 04:46:15;;;;;;;9.35;2.70;;;8.70;96.70;;;;;;4873447;29;20523;-78
2020/12/20 04:48:57;;;;;;;5.40;1.73;;;8.70;96.70;;;;;;4877957;29;20520;-78
2020/12/20 04:51:25;;;;;;;9.43;2.55;;;8.70;96.70;;;;;;4837836;29;20044;-78
2020/12/20 04:53:56;;;;;;;6.25;2.30;;;8.70;96.70;;;;;;4881292;29;20039;-78
2020/12/20 04:56:36;;;;;;;4.82;2.17;;;8.70;96.70;;;;;;4870069;29;20055;-78
2020/12/20 04:59:07;;;;;;;8.93;2.15;;;8.70;96.70;;;;;;4888417;29;20041;-78
2020/12/20 05:01:41;;;;;;;5.28;1.63;;;8.70;96.70;;;;;;4854885;29;20503;-78
2020/12/20 05:04:09;;;;;;;10.07;3.08;;;8.70;96.70;;;;;;4870381;29;20063;-78
2020/12/20 05:06:37;;;;;;;7.78;2.30;;;8.60;96.60;;;;;;4872065;29;20388;-78
2020/12/20 05:09:12;;;;;;;6.10;1.88;;;8.60;96.60;;;;;;4843528;29;20051;-78
2020/12/20 05:11:50;;;;;;;7.45;2.05;;;8.60;96.70;;;;;;4901053;29;20037;-78
2020/12/20 05:14:33;;;;;;;3.95;1.85;;;8.70;96.70;;;;;;4886541;29;21345;-78
2020/12/20 05:17:17;;;;;;;7.50;2.03;;;8.70;97.00;;;;;;4871233;29;20055;-78
2020/12/20 05:19:51;;;;;;;6.15;2.45;;;8.70;96.70;;;;;;4880580;29;20041;-78
2020/12/20 05:22:21;;;;;;;6.82;1.83;;;8.70;96.70;;;;;;4885273;29;20033;-77
2020/12/20 05:24:56;;;;;;;6.35;1.38;;;8.70;96.70;;;;;;4915820;29;20028;-78
2020/12/20 05:27:33;;;;;;;5.60;1.80;;;8.70;96.70;;;;;;4853753;29;20047;-78
2020/12/20 05:30:25;;;;;;;6.93;1.70;;;8.70;96.60;;;;;;4852061;29;20040;-78
2020/12/20 05:33:31;;;;;;;7.03;1.70;;;8.70;96.60;;;;;;4856310;29;20063;-78
2020/12/20 05:36:08;;;;;;;7.20;1.98;;;8.70;96.60;;;;;;4888962;29;20032;-77
2020/12/20 05:38:37;;;;;;;9.38;1.90;;;8.70;96.60;;;;;;4869774;29;20037;-77
2020/12/20 05:41:04;;;;;;;7.20;1.80;;;8.70;96.70;;;;;;4885974;29;20050;-78
2020/12/20 05:43:32;;;;;;;7.88;1.55;;;8.70;96.60;;;;;;4853506;29;20044;-80
2020/12/20 05:46:01;;;;;;;5.43;1.58;;;8.70;96.60;;;;;;4913271;29;20400;-80
2020/12/20 05:48:38;;;;;;;5.07;1.30;;;8.70;96.60;;;;;;4883043;29;20044;-80
2020/12/20 05:51:10;;;;;;;4.95;1.17;;;8.70;96.60;;;;;;4882528;29;20420;-80
2020/12/20 05:53:38;;;;;;;3.95;1.27;;;8.70;96.70;;;;;;4860215;29;20052;-81
2020/12/20 05:56:05;;;;;;;3.28;1.15;;;8.70;96.70;;;;;;4866808;29;20049;-80
2020/12/20 05:58:33;;;;;;;5.00;1.60;;;8.70;96.70;;;;;;4881286;29;20052;-78
2020/12/20 06:01:01;;;;;;;3.90;1.40;;;8.70;96.70;;;;;;4884790;29;20040;-78
2020/12/20 06:03:28;;;;;;;4.40;1.15;;;8.70;96.70;;;;;;4851288;29;20048;-77
2020/12/20 06:05:54;;;;;;;5.25;1.40;;;8.70;96.70;;;;;;4882885;29;20045;-78
2020/12/20 06:08:23;;;;;;;4.85;1.40;;;8.70;96.70;;;;;;4880986;29;20044;-78
2020/12/20 06:10:52;;;;;;;8.10;1.77;;;8.70;96.70;;;;;;4887136;29;20052;-77
2020/12/20 06:13:23;;;;;;;8.75;2.03;;;8.70;96.70;;;;;;4867356;29;20060;-77
2020/12/20 06:15:53;;;;;;;3.55;1.33;;;8.70;96.70;;;;;;4902320;29;20052;-77
2020/12/20 06:18:22;;;;;;;7.03;1.48;;;8.70;96.70;;;;;;4887605;29;20048;-78
2020/12/20 06:20:55;;;;;;;5.28;1.65;;;8.70;96.70;;;;;;4900645;29;20448;-77
2020/12/20 06:23:27;;;;;;;5.57;1.33;;;8.70;96.70;;;;;;4884047;29;20041;-77
2020/12/20 06:25:55;;;;;;;6.15;1.40;;;8.70;96.70;;;;;;4903993;29;20039;-77
2020/12/20 06:28:27;;;;;;;10.73;2.15;;;8.60;96.70;;;;;;4883841;29;20039;-78
2020/12/20 06:30:55;;;;;;;6.20;1.65;;;8.60;96.60;;;;;;4882593;29;20048;-78
2020/12/20 06:33:45;;;;;;;5.65;1.35;;;8.60;96.70;;;;;;4884084;29;20040;-78
2020/12/20 06:36:13;;;;;;;6.45;1.65;;;8.60;96.70;;;;;;4881094;29;20059;-78
2020/12/20 06:38:40;;;;;;;4.45;1.48;;;8.60;96.70;;;;;;4897486;29;20057;-78
2020/12/20 06:41:07;;;;;;;7.50;1.70;;;8.60;96.70;;;;;;4885170;29;20048;-78
2020/12/20 06:43:36;;;;;;;5.85;1.48;;;8.60;96.70;;;;;;4898407;29;20052;-78
2020/12/20 06:46:04;;;;;;;6.20;1.98;;;8.60;96.70;;;;;;4885033;29;20052;-78
2020/12/20 06:48:36;;;;;;;4.55;1.52;;;8.60;96.80;;;;;;4869233;29;20056;-78
2020/12/20 06:51:07;;;;;;;9.05;2.80;;;8.60;96.80;;;;;;4867121;29;20051;-78
2020/12/20 06:53:46;;;;;;;6.47;2.08;;;8.60;96.70;;;;;;4891850;29;20055;-78
2020/12/20 06:56:21;;;;;;;6.85;1.90;;;8.70;96.70;;;;;;4892690;29;20514;-78
2020/12/20 06:58:50;;;;;;;9.32;2.03;;;8.70;96.70;;;;;;4900099;29;20056;-78
2020/12/20 07:01:39;;;;;;;7.43;2.53;;;8.70;96.70;;;;;;4900035;29;20035;-78
2020/12/20 07:04:15;;;;;;;6.53;1.88;;;8.80;96.70;;;;;;4898754;29;20060;-77
2020/12/20 07:07:06;;;;;;;5.43;1.90;;;8.80;96.60;;;;;;4894923;29;20055;-77
2020/12/20 07:09:33;;;;;;;7.55;1.92;;;8.80;96.50;;;;;;4873383;29;20061;-78
2020/12/20 07:11:59;;;;;;;8.02;1.50;;;8.80;96.80;;;;;;4900221;29;20048;-78
2020/12/20 07:14:34;;;;;;;7.35;2.20;;;8.80;96.50;;;;;;4838920;29;20412;-78
2020/12/20 07:17:21;;;;;;;7.72;1.85;;;8.80;96.60;;;;;;4894297;29;20049;-78
2020/12/20 07:20:07;;;;;;;8.60;3.28;;;8.70;96.60;;;;;;4871789;29;20428;-78
2020/12/20 07:22:34;;;;;;;15.23;2.80;;;8.70;96.60;;;;;;4879214;29;20051;-78
2020/12/20 07:25:01;;;;;;;5.43;1.83;;;8.70;96.60;;;;;;4876511;29;20051;-77
2020/12/20 07:27:28;;;;;;;5.28;1.85;;;8.70;96.60;;;;;;4868279;29;20056;-77
2020/12/20 07:29:54;;;;;;;8.15;1.50;;;8.70;96.60;;;;;;4898488;29;20055;-78
2020/12/20 07:32:21;;;;;;;6.65;1.40;;;8.60;96.60;;;;;;4899744;29;20053;-78
2020/12/20 07:34:48;;;;;;;6.32;1.80;;;8.70;96.70;;;;;;4854187;29;20041;-77
2020/12/20 07:37:14;;;;;;;8.52;2.28;;;8.70;96.70;;;;;;4867825;29;20051;-78
2020/12/20 07:39:41;;;;;;;6.55;1.45;;;8.70;96.60;;;;;;4898687;29;20076;-77
2020/12/20 07:42:07;;;;;;;16.05;8.07;;;8.70;96.60;;;;;;4880876;29;20043;-77
2020/12/20 07:44:34;;;;;;;11.35;5.93;;;8.60;96.60;;;;;;4852769;29;20048;-77
2020/12/20 07:47:09;;;;;;;10.45;3.92;;;8.60;96.60;;;;;;4884419;29;20041;-78
2020/12/20 07:49:36;;;;;;;9.63;2.97;;;8.60;96.70;;;;;;4879730;29;20503;-75
2020/12/20 07:52:09;;;;;;;5.75;2.08;;;8.50;96.70;;;;;;4853302;29;20049;-78
2020/12/20 07:54:36;;;;;;;6.97;1.85;;;8.50;96.70;;;;;;4867636;29;20060;-79
2020/12/20 07:57:04;;;;;;;10.40;2.95;;;8.50;96.70;;;;;;4849595;29;20495;-77
2020/12/20 07:59:32;;;;;;;11.02;4.10;;;8.40;96.70;;;;;;4902327;29;20044;-77
2020/12/20 08:01:58;;;;;;;11.25;4.15;;;8.50;96.80;;;;;;4851841;29;20032;-78
2020/12/20 08:04:25;;;;;;;11.07;2.90;;;8.50;96.80;;;;;;4884767;29;20408;-77
2020/12/20 08:06:52;;;;;;;10.52;2.90;;;8.50;96.80;;;;;;4881577;29;20047;-78
2020/12/20 08:09:20;;;;;;;11.20;2.05;;;8.50;96.80;;;;;;4879444;29;20044;-77
2020/12/20 08:11:49;;;;;;;11.20;2.05;;;8.50;96.80;;;;;;4893030;29;20055;-77
2020/12/20 08:14:20;;;;;;;9.38;2.00;;;8.50;96.80;;;;;;4869170;29;20686;-78
2020/12/20 08:16:50;;;;;;;8.88;2.15;;;8.50;96.80;;;;;;4902852;29;20063;-77
2020/12/20 08:19:24;;;;;;;8.05;1.92;;;8.50;96.80;;;;;;4886982;29;20130;-78
2020/12/20 08:21:56;;;;;;;9.43;2.00;;;8.50;96.80;;;;;;4868557;29;20039;-77
2020/12/20 08:24:28;;;;;;;14.27;2.38;;;8.50;96.80;;;;;;4895168;29;20045;-77
2020/12/20 08:26:55;;;;;;;10.65;2.45;;;8.50;96.80;;;;;;4878788;29;20045;-78
2020/12/20 08:29:22;;;;;;;10.38;1.98;;;8.50;96.80;;;;;;4876614;29;20068;-78
2020/12/20 08:31:48;;;;;;;8.38;1.83;;;8.50;96.80;;;;;;4864930;29;20709;-78
2020/12/20 08:34:21;;;;;;;7.78;1.70;;;8.60;96.80;;;;;;4890117;29;20056;-78
2020/12/20 08:36:51;;;;;;;8.88;1.90;;;8.60;96.80;;;;;;4899557;29;20068;-78
2020/12/20 08:39:25;;;;;;;10.50;1.83;;;8.60;96.80;;;;;;4877755;29;20040;-78
2020/12/20 08:42:05;;;;;;;11.45;1.90;;;8.60;96.70;;;;;;4892383;29;20064;-78
2020/12/20 08:44:32;;;;;;;13.38;2.67;;;8.70;96.80;;;;;;4895604;29;20052;-78
2020/12/20 08:47:20;;;;;;;12.25;2.65;;;8.70;96.80;;;;;;4882363;29;20412;-78
2020/12/20 08:49:57;;;;;;;9.65;2.00;;;8.80;96.70;;;;;;4896966;29;20057;-78
2020/12/20 08:52:26;;;;;;;9.93;2.17;;;8.80;96.70;;;;;;4874408;29;20036;-78
2020/12/20 08:54:57;;;;;;;7.47;1.88;;;8.80;96.70;;;;;;4896559;29;20040;-78
2020/12/20 08:57:34;;;;;;;9.43;2.47;;;8.80;96.70;;;;;;4863527;29;20048;-78
2020/12/20 09:00:13;;;;;;;11.25;2.30;;;8.80;96.70;;;;;;4861648;29;20522;-78
2020/12/20 09:02:42;;;;;;;12.82;1.70;;;8.90;96.70;;;;;;4880986;29;20115;-78
2020/12/20 09:05:15;;;;;;;13.02;2.65;;;8.90;96.60;;;;;;4872957;29;20047;-78
2020/12/20 09:07:49;;;;;;;11.40;2.47;;;9.00;96.60;;;;;;4886740;29;20052;-78
2020/12/20 09:10:19;;;;;;;10.93;2.30;;;9.00;96.60;;;;;;4879753;29;20078;-77
2020/12/20 09:12:55;;;;;;;11.52;2.08;;;9.00;96.60;;;;;;4867130;29;20056;-78
2020/12/20 09:15:23;;;;;;;15.52;2.72;;;9.00;96.60;;;;;;4886048;29;20424;-78
2020/12/20 09:17:52;;;;;;;7.07;1.73;;;9.10;96.60;;;;;;4870718;29;20041;-77
2020/12/20 09:20:21;;;;;;;11.75;2.83;;;9.10;96.50;;;;;;4848393;29;20036;-78
2020/12/20 09:22:51;;;;;;;10.48;2.30;;;9.10;96.50;;;;;;4853242;29;20045;-78
2020/12/20 09:25:44;;;;;;;6.65;1.70;;;9.20;96.50;;;;;;4871760;29;20044;-77
2020/12/20 09:28:21;;;;;;;7.97;2.17;;;9.20;96.50;;;;;;4860306;29;20036;-78
2020/12/20 09:30:50;;;;;;;14.65;2.28;;;9.20;96.50;;;;;;4870979;29;20293;-78
2020/12/20 09:33:21;;;;;;;13.30;2.55;;;9.20;96.50;;;;;;4869404;29;20041;-77
2020/12/20 09:35:52;;;;;;;11.35;2.83;;;9.20;96.40;;;;;;4874171;29;20045;-79
2020/12/20 09:38:19;;;;;;;11.55;2.63;;;9.30;96.40;;;;;;4870311;29;20614;-78
2020/12/20 09:40:46;;;;;;;11.57;2.40;;;9.30;96.40;;;;;;4833403;29;20037;-78
2020/12/20 09:43:19;;;;;;;11.65;2.08;;;9.30;96.40;;;;;;4863222;29;20847;-78
2020/12/20 09:45:46;;;;;;;15.07;3.17;;;9.40;96.40;;;;;;4862908;29;20052;-78
2020/12/20 09:48:13;;;;;;;23.15;6.05;;;9.40;96.40;;;;;;4861715;29;20051;-78
2020/12/20 09:50:39;;;;;;;17.20;3.53;;;9.40;96.30;;;;;;4867784;29;20049;-78
2020/12/20 09:53:06;;;;;;;8.90;2.30;;;9.40;96.20;;;;;;4872061;29;20049;-78
2020/12/20 09:55:32;;;;;;;16.55;2.90;;;9.50;96.20;;;;;;4871029;29;20049;-78
2020/12/20 09:57:58;;;;;;;16.02;2.63;;;9.50;96.20;;;;;;4872040;29;20044;-78
2020/12/20 10:00:25;;;;;;;11.73;2.63;;;9.50;96.10;;;;;;4859921;29;20041;-78
2020/12/20 10:02:51;;;;;;;12.88;2.58;;;9.50;96.10;;;;;;4842474;29;20390;-78
2020/12/20 10:05:18;;;;;;;10.18;2.15;;;9.60;96.10;;;;;;4887098;29;20056;-79
2020/12/20 10:07:44;;;;;;;13.05;2.28;;;9.60;96.10;;;;;;4855158;29;20029;-79
2020/12/20 10:10:11;;;;;;;13.02;2.33;;;9.70;96.00;;;;;;4870628;29;20045;-79
2020/12/20 10:12:38;;;;;;;8.07;2.20;;;9.70;96.00;;;;;;4868200;29;20486;-79
2020/12/20 10:15:05;;;;;;;10.60;1.98;;;9.70;96.00;;;;;;4886566;29;20048;-78
2020/12/20 10:17:31;;;;;;;11.02;2.13;;;9.70;95.90;;;;;;4885090;29;20056;-79
2020/12/20 10:19:58;;;;;;;11.13;2.00;;;9.80;95.90;;;;;;4886283;29;20037;-79
2020/12/20 10:22:24;;;;;;;15.57;2.40;;;9.80;95.90;;;;;;4888484;29;20396;-79
2020/12/20 10:24:51;;;;;;;16.77;2.58;;;9.80;95.90;;;;;;4857266;29;20508;-79
2020/12/20 10:27:21;;;;;;;9.45;2.17;;;9.90;95.90;;;;;;4872075;29;20690;-79
2020/12/20 10:29:48;;;;;;;12.20;1.88;;;9.90;95.80;;;;;;4888854;29;20036;-79
2020/12/20 10:32:15;;;;;;;12.02;1.88;;;10.00;95.80;;;;;;4891313;29;20071;-79
2020/12/20 10:34:41;;;;;;;14.27;3.05;;;10.00;95.80;;;;;;4861913;29;20055;-79
2020/12/20 10:37:08;;;;;;;11.80;2.22;;;10.00;95.70;;;;;;4835234;29;20041;-78
2020/12/20 10:39:34;;;;;;;11.73;2.10;;;10.10;95.70;;;;;;4882463;29;20053;-79
2020/12/20 10:42:01;;;;;;;11.15;1.90;;;10.10;95.60;;;;;;4871604;29;20457;-80
2020/12/20 10:44:28;;;;;;;6.60;1.52;;;10.10;95.60;;;;;;4888954;29;20045;-81
2020/12/20 10:46:55;;;;;;;14.88;5.18;;;10.20;95.60;;;;;;4867069;29;20041;-78
2020/12/20 10:49:21;;;;;;;23.05;6.20;;;10.20;95.60;;;;;;4888254;29;20045;-81
2020/12/20 10:51:55;;;;;;;13.88;3.60;;;10.30;95.50;;;;;;4871444;29;20052;-80
2020/12/20 10:54:23;;;;;;;13.65;2.35;;;10.30;95.50;;;;;;4879655;29;20049;-77
2020/12/20 10:56:51;;;;;;;11.32;1.83;;;10.30;95.40;;;;;;4844416;29;20738;-77
2020/12/20 10:59:17;;;;;;;17.17;3.00;;;10.30;95.30;;;;;;4867070;29;20041;-78
2020/12/20 11:01:44;;;;;;;12.57;2.08;;;10.30;95.20;;;;;;4838196;29;20060;-78
2020/12/20 11:04:10;;;;;;;18.10;2.90;;;10.30;95.20;;;;;;4885968;29;20083;-79
2020/12/20 11:06:38;;;;;;;18.80;3.03;;;10.30;95.20;;;;;;4866575;29;20049;-79
2020/12/20 11:09:04;;;;;;;13.70;2.88;;;10.40;95.00;;;;;;4879554;29;20408;-79
2020/12/20 11:11:32;;;;;;;16.48;2.47;;;10.40;95.00;;;;;;4871541;29;20048;-78
2020/12/20 11:13:59;;;;;;;8.38;2.22;;;10.50;94.90;;;;;;4866175;29;20064;-79
2020/12/20 11:16:25;;;;;;;16.45;2.83;;;10.50;94.80;;;;;;4880982;29;20051;-79
2020/12/20 11:18:52;;;;;;;14.13;2.38;;;10.50;94.70;;;;;;4896467;29;20052;-79
2020/12/20 11:21:20;;;;;;;18.40;2.40;;;10.50;94.80;;;;;;4882079;29;20072;-79
2020/12/20 11:23:48;;;;;;;15.27;2.30;;;10.50;94.70;;;;;;4879946;29;20043;-79
2020/12/20 11:26:17;;;;;;;10.30;1.77;;;10.60;94.60;;;;;;4895715;29;20032;-79
2020/12/20 11:28:45;;;;;;;17.35;2.97;;;10.70;94.70;;;;;;4894766;29;20041;-78
2020/12/20 11:31:17;;;;;;;13.93;2.17;;;10.80;94.50;;;;;;4880768;29;20110;-80
2020/12/20 11:33:45;;;;;;;17.98;2.63;;;10.80;94.30;;;;;;4894436;29;20060;-79
2020/12/20 11:36:20;;;;;;;18.23;2.45;;;10.90;94.30;;;;;;4878984;29;20049;-79
2020/12/20 11:38:48;;;;;;;14.23;2.25;;;10.90;94.20;;;;;;4884160;29;20036;-78
2020/12/20 11:41:18;;;;;;;18.15;2.80;;;11.00;94.00;;;;;;4891458;29;20039;-79
2020/12/20 11:43:45;;;;;;;12.75;2.10;;;11.00;93.80;;;;;;4880465;29;20028;-79
2020/12/20 11:46:12;;;;;;;13.10;2.78;;;11.00;93.70;;;;;;4882684;29;20732;-79
2020/12/20 11:48:38;;;;;;;13.73;3.47;;;11.00;93.60;;;;;;4872867;29;20060;-79
2020/12/20 11:51:08;;;;;;;14.38;3.30;;;10.90;93.50;;;;;;4876427;29;20040;-80
2020/12/20 11:53:36;;;;;;;18.23;3.45;;;10.80;93.30;;;;;;4900960;29;20039;-78
2020/12/20 11:56:06;;;;;;;19.67;4.00;;;10.90;93.50;;;;;;4875462;29;20052;-79
2020/12/20 11:58:33;;;;;;;17.38;3.55;;;11.00;93.60;;;;;;4890242;29;20040;-81
2020/12/20 12:01:00;;;;;;;11.43;3.28;;;11.10;93.60;;;;;;4874789;29;20029;-79
2020/12/20 12:03:27;;;;;;;14.20;2.92;;;11.20;93.60;;;;;;4877984;29;20056;-78
2020/12/20 12:05:53;;;;;;;18.77;5.68;;;11.20;93.50;;;;;;4868042;29;20045;-78
2020/12/20 12:08:20;;;;;;;18.10;5.72;;;11.30;93.30;;;;;;4883501;29;20791;-78
2020/12/20 12:10:47;;;;;;;17.95;4.72;;;11.30;93.30;;;;;;4865196;29;20051;-78
2020/12/20 12:13:13;;;;;;;16.20;3.60;;;11.30;93.30;;;;;;4851524;29;20067;-78
2020/12/20 12:15:41;;;;;;;20.13;4.10;;;11.30;93.20;;;;;;4846539;29;20048;-79
2020/12/20 12:18:08;;;;;;;8.95;2.45;;;11.30;93.20;;;;;;4879628;29;20040;-79
2020/12/20 12:20:35;;;;;;;13.65;2.80;;;11.40;93.20;;;;;;4865538;29;20048;-79
2020/12/20 12:23:01;;;;;;;17.77;4.03;;;11.50;93.10;;;;;;4863940;29;20052;-78
2020/12/20 12:25:28;;;;;;;19.20;3.78;;;11.50;92.80;;;;;;4895230;29;20028;-80
2020/12/20 12:27:54;;;;;;;11.82;3.22;;;11.50;92.80;;;;;;4879911;29;20036;-80
2020/12/20 12:30:21;;;;;;;17.52;3.42;;;11.50;92.70;;;;;;4881625;29;20068;-79
2020/12/20 12:32:52;;;;;;;15.98;3.33;;;11.50;92.50;;;;;;4878674;29;20055;-79
2020/12/20 12:35:20;;;;;;;20.80;4.10;;;11.50;92.60;;;;;;4898613;29;20060;-78
2020/12/20 12:37:47;;;;;;;14.40;3.10;;;11.40;92.50;;;;;;4893156;29;20044;-79
2020/12/20 12:40:14;;;;;;;17.92;3.38;;;11.40;92.40;;;;;;4868433;29;20053;-78
2020/12/20 12:42:41;;;;;;;17.27;3.20;;;11.40;92.40;;;;;;4880461;29;20040;-78
2020/12/20 12:45:09;;;;;;;14.30;3.60;;;11.30;92.10;;;;;;4875563;29;20040;-79
2020/12/20 12:47:35;;;;;;;20.58;3.95;;;11.20;92.20;;;;;;4894763;29;20049;-80
2020/12/20 12:50:02;;;;;;;18.55;4.03;;;11.20;92.10;;;;;;4890726;29;20063;-79
2020/12/20 12:52:28;;;;;;;15.57;3.30;;;11.20;92.50;;;;;;4875439;29;20059;-78
2020/12/20 12:54:55;;;;;;;10.98;2.95;;;11.20;92.30;;;;;;4877380;29;20040;-78
2020/12/20 12:57:21;;;;;;;10.35;2.25;;;11.30;92.40;;;;;;4892342;29;20563;-78
2020/12/20 12:59:48;;;;;;;15.73;2.90;;;11.30;92.50;;;;;;4893238;29;20519;-77
2020/12/20 13:02:14;;;;;;;12.27;3.13;;;11.30;92.40;;;;;;4887116;29;20408;-77
2020/12/20 13:04:41;;;;;;;16.92;3.22;;;11.30;92.40;;;;;;4866535;29;20387;-78
2020/12/20 13:07:07;;;;;;;12.52;2.47;;;11.30;92.30;;;;;;4860301;29;20048;-78